Time;durP1;ratioP1;P1;durP2;ratioP2;P2;SDS_P1;SDS_P2;PMS_P1;PMS_P2;Temp;Humidity;BMP_temperature;BMP_pressure;BME280_temperature;BME280_humidity;BME280_pressure;Samples;Min_cycle;Max_cycle;Signal;HPM_P1;HPM_P2
2022/09/22 00:02:18;;;;;;;;;;;;;;;21.29;58.43;102115.72;7282567;19;151983;-59
2022/09/22 00:04:45;;;;;;;;;;;;;;;21.30;58.76;102110.94;7289622;19;153688;-59
2022/09/22 00:07:12;;;;;;;;;;;;;;;21.29;58.72;102114.88;7282634;19;152570;-58
2022/09/22 00:09:38;;;;;;;;;;;;;;;21.28;59.18;102114.03;7281805;19;152477;-58
2022/09/22 00:12:05;;;;;;;;;;;;;;;21.31;58.83;102112.59;7280994;19;152507;-58
2022/09/22 00:14:32;;;;;;;;;;;;;;;21.32;59.03;102116.25;7283037;19;151820;-59
2022/09/22 00:17:00;;;;;;;;;;;;;;;21.32;58.97;102117.09;7278705;19;153760;-59
2022/09/22 00:19:29;;;;;;;;;;;;;;;21.33;59.22;102117.94;7280211;19;154492;-59
2022/09/22 00:21:56;;;;;;;;;;;;;;;21.33;59.31;102115.97;7283544;19;153782;-60
2022/09/22 00:24:24;;;;;;;;;;;;;;;21.34;59.32;102119.63;7284090;19;153619;-59
2022/09/22 00:26:56;;;;;;;;;;;;;;;21.34;59.59;102108.38;7287016;19;154662;-59
2022/09/22 00:29:24;;;;;;;;;;;;;;;21.35;59.52;102113.72;7283926;19;152047;-59
2022/09/22 00:31:50;;;;;;;;;;;;;;;21.34;59.78;102105.59;7275705;19;153069;-59
2022/09/22 00:34:18;;;;;;;;;;;;;;;21.34;59.74;102106.44;7283941;19;152803;-59
2022/09/22 00:36:46;;;;;;;;;;;;;;;21.34;59.97;102103.63;7282128;19;152236;-59
2022/09/22 00:39:13;;;;;;;;;;;;;;;21.35;59.91;102102.47;7279407;19;154280;-58
2022/09/22 00:41:40;;;;;;;;;;;;;;;21.35;59.97;102107.28;7280918;19;152229;-58
2022/09/22 00:44:17;;;;;;;;;;;;;;;21.37;60.40;102105.00;7280505;19;153515;-58
2022/09/22 00:46:46;;;;;;;;;;;;;;;21.37;60.37;102102.19;7278688;19;152596;-58
2022/09/22 00:49:14;;;;;;;;;;;;;;;21.38;60.08;102098.25;7288751;19;154326;-58
2022/09/22 00:51:42;;;;;;;;;;;;;;;21.39;60.11;102097.13;7279083;19;154208;-59
2022/09/22 00:54:12;;;;;;;;;;;;;;;21.40;60.10;102096.81;7284817;19;151794;-59
2022/09/22 00:56:45;;;;;;;;;;;;;;;21.40;60.44;102091.19;7279213;19;152817;-58
2022/09/22 00:59:15;;;;;;;;;;;;;;;21.41;60.38;102098.53;7279880;19;153769;-59
2022/09/22 01:01:42;;;;;;;;;;;;;;;21.42;60.21;102105.84;7277457;19;152806;-58
2022/09/22 01:04:09;;;;;;;;;;;;;;;21.41;60.28;102095.69;7278431;19;152209;-59
2022/09/22 01:06:38;;;;;;;;;;;;;;;21.41;60.06;102090.09;7280889;19;153213;-59
2022/09/22 01:09:05;;;;;;;;;;;;;;;21.42;60.47;102088.97;7278234;19;153735;-57
2022/09/22 01:11:33;;;;;;;;;;;;;;;21.43;60.05;102079.41;7283002;19;152248;-58
2022/09/22 01:14:07;;;;;;;;;;;;;;;21.43;60.47;102084.19;7279895;19;153425;-61
2022/09/22 01:16:34;;;;;;;;;;;;;;;21.43;60.29;102078.56;7279113;19;152582;-59
2022/09/22 01:19:01;;;;;;;;;;;;;;;21.43;60.01;102075.75;7278780;19;154252;-59
2022/09/22 01:21:31;;;;;;;;;;;;;;;21.44;60.04;102074.63;7281469;19;152558;-61
2022/09/22 01:24:13;;;;;;;;;;;;;;;21.43;60.10;102073.78;7280421;19;152684;-59
2022/09/22 01:26:50;;;;;;;;;;;;;;;21.44;60.61;102074.63;7280219;19;153350;-59
2022/09/22 01:29:26;;;;;;;;;;;;;;;21.44;60.60;102069.81;7282337;19;152122;-59
2022/09/22 01:32:01;;;;;;;;;;;;;;;21.45;60.40;102076.28;7277351;19;153492;-59
2022/09/22 01:34:38;;;;;;;;;;;;;;;21.45;60.44;102067.84;7288645;19;152495;-59
2022/09/22 01:37:13;;;;;;;;;;;;;;;21.45;60.43;102062.22;7280825;19;152191;-60
2022/09/22 01:39:45;;;;;;;;;;;;;;;21.45;60.26;102057.44;7281544;19;154455;-60
2022/09/22 01:42:22;;;;;;;;;;;;;;;21.45;60.16;102062.22;7231863;19;154561;-59
2022/09/22 01:44:49;;;;;;;;;;;;;;;21.46;60.51;102055.47;7260255;19;152334;-58
2022/09/22 01:47:26;;;;;;;;;;;;;;;21.45;60.36;102054.63;7261371;19;156867;-58
2022/09/22 01:49:56;;;;;;;;;;;;;;;21.46;60.48;102056.31;7279094;19;152468;-59
2022/09/22 01:52:26;;;;;;;;;;;;;;;21.46;60.47;102047.03;7278377;19;152767;-58
2022/09/22 01:54:57;;;;;;;;;;;;;;;21.46;60.51;102047.03;7282497;19;152800;-58
2022/09/22 01:57:29;;;;;;;;;;;;;;;21.46;60.51;102049.84;7257725;19;153708;-58
2022/09/22 01:59:58;;;;;;;;;;;;;;;21.46;60.42;102047.03;7278354;19;153461;-58
2022/09/22 02:02:29;;;;;;;;;;;;;;;21.46;60.46;102049.84;7279460;19;151604;-58
2022/09/22 02:05:04;;;;;;;;;;;;;;;21.46;60.65;102050.69;7280813;19;154631;-58
2022/09/22 02:07:32;;;;;;;;;;;;;;;21.47;60.88;102048.72;7257419;19;154658;-59
2022/09/22 02:10:03;;;;;;;;;;;;;;;21.45;60.66;102049.00;7280463;19;151832;-59
2022/09/22 02:12:29;;;;;;;;;;;;;;;21.47;61.08;102049.56;7276398;19;151983;-59
2022/09/22 02:14:57;;;;;;;;;;;;;;;21.46;60.73;102039.44;7278530;19;152251;-59
2022/09/22 02:17:26;;;;;;;;;;;;;;;21.46;61.41;102035.78;7262695;19;153206;-58
2022/09/22 02:20:01;;;;;;;;;;;;;;;21.47;61.08;102035.53;7277553;19;153375;-59
2022/09/22 02:22:32;;;;;;;;;;;;;;;21.46;61.13;102039.44;7279681;19;151896;-59
2022/09/22 02:24:59;;;;;;;;;;;;;;;21.47;61.45;102040.28;7280006;19;153212;-59
2022/09/22 02:27:35;;;;;;;;;;;;;;;21.46;60.99;102035.78;7254704;19;153525;-59
2022/09/22 02:30:04;;;;;;;;;;;;;;;21.46;60.94;102031.03;7279412;19;152801;-59
2022/09/22 02:32:30;;;;;;;;;;;;;;;21.47;61.35;102037.47;7274530;19;151742;-59
2022/09/22 02:34:57;;;;;;;;;;;;;;;21.47;61.34;102029.91;7276563;19;153361;-59
2022/09/22 02:37:34;;;;;;;;;;;;;;;21.46;61.42;102028.22;7287912;19;153016;-59
2022/09/22 02:42:40;;;;;;;;;;;;;;;21.47;61.67;102032.72;7283397;19;151857;-58
2022/09/22 02:45:12;;;;;;;;;;;;;;;21.47;61.33;102027.09;7287732;19;153224;-59
2022/09/22 02:47:42;;;;;;;;;;;;;;;21.47;61.56;102027.09;7284023;19;154446;-58
2022/09/22 02:50:11;;;;;;;;;;;;;;;21.47;61.30;102023.44;7286834;19;151884;-58
2022/09/22 02:52:38;;;;;;;;;;;;;;;21.48;61.22;102019.50;7285527;19;152806;-58
2022/09/22 02:55:06;;;;;;;;;;;;;;;21.47;61.27;102021.47;7285605;19;154278;-58
2022/09/22 02:57:33;;;;;;;;;;;;;;;21.47;61.17;102017.81;7281217;19;152620;-58
2022/09/22 03:00:00;;;;;;;;;;;;;;;21.47;61.41;102021.47;7284643;19;153702;-58
2022/09/22 03:02:27;;;;;;;;;;;;;;;21.47;61.50;102013.03;7291126;19;153848;-58
2022/09/22 03:04:54;;;;;;;;;;;;;;;21.48;61.47;102019.50;7286085;19;152605;-58
2022/09/22 03:07:20;;;;;;;;;;;;;;;21.47;61.62;102018.66;7284720;19;151978;-58
2022/09/22 03:09:47;;;;;;;;;;;;;;;21.47;61.41;102013.03;7286133;19;152603;-58
2022/09/22 03:12:14;;;;;;;;;;;;;;;21.48;61.74;102011.06;7282839;19;152597;-58
2022/09/22 03:14:41;;;;;;;;;;;;;;;21.48;61.52;102008.25;7284697;19;153511;-58
2022/09/22 03:17:07;;;;;;;;;;;;;;;21.47;62.08;102000.94;7284886;19;153442;-58
2022/09/22 03:19:34;;;;;;;;;;;;;;;21.46;62.07;102000.09;7283208;19;152618;-58
2022/09/22 03:22:01;;;;;;;;;;;;;;;21.48;61.91;101997.00;7284026;19;153256;-58
2022/09/22 03:24:28;;;;;;;;;;;;;;;21.48;62.08;101994.19;7292418;19;151526;-58
2022/09/22 03:26:53;;;;;;;;;;;;;;;21.47;62.33;101986.88;7279414;19;152407;-58
2022/09/22 03:29:20;;;;;;;;;;;;;;;21.47;62.42;101990.53;7286237;19;151908;-58
2022/09/22 03:31:47;;;;;;;;;;;;;;;21.47;62.47;101996.16;7284316;19;153864;-58
2022/09/22 03:34:14;;;;;;;;;;;;;;;21.47;62.77;101989.69;7282850;19;153420;-58
2022/09/22 03:36:41;;;;;;;;;;;;;;;21.48;62.61;101983.78;7285094;19;152558;-58
2022/09/22 03:39:07;;;;;;;;;;;;;;;21.47;62.42;101984.06;7283550;19;154060;-58
2022/09/22 03:41:34;;;;;;;;;;;;;;;21.47;62.94;101984.91;7281423;19;153167;-58
2022/09/22 03:44:01;;;;;;;;;;;;;;;21.48;62.71;101982.94;7291747;19;152108;-58
2022/09/22 03:46:29;;;;;;;;;;;;;;;21.48;62.74;101980.97;7282496;19;154294;-58
2022/09/22 03:48:55;;;;;;;;;;;;;;;21.48;62.92;101974.50;7282623;19;152585;-58
2022/09/22 03:51:22;;;;;;;;;;;;;;;21.47;63.07;101970.84;7284256;19;152366;-58
2022/09/22 03:56:16;;;;;;;;;;;;;;;21.48;62.81;101964.09;7283403;19;151853;-59
2022/09/22 03:58:43;;;;;;;;;;;;;;;21.48;62.70;101963.25;7283526;19;153241;-58
2022/09/22 04:01:10;;;;;;;;;;;;;;;21.48;62.60;101969.72;7279201;19;152650;-59
2022/09/22 04:03:37;;;;;;;;;;;;;;;21.49;62.63;101960.13;7284237;19;152871;-58
2022/09/22 04:06:04;;;;;;;;;;;;;;;21.48;62.86;101964.09;7287916;19;152604;-59
2022/09/22 04:08:31;;;;;;;;;;;;;;;21.48;62.73;101964.09;7283815;19;152424;-59
2022/09/22 04:10:58;;;;;;;;;;;;;;;21.47;62.95;101953.97;7281617;19;152831;-59
2022/09/22 04:13:25;;;;;;;;;;;;;;;21.48;62.61;101957.63;7281832;19;154698;-59
2022/09/22 04:15:52;;;;;;;;;;;;;;;21.49;62.36;101959.28;7285596;19;152027;-61
2022/09/22 04:18:18;;;;;;;;;;;;;;;21.48;62.80;101960.44;7282470;19;153968;-58
2022/09/22 04:20:45;;;;;;;;;;;;;;;21.48;62.47;101954.81;7283191;19;153382;-59
2022/09/22 04:23:12;;;;;;;;;;;;;;;21.47;62.62;101951.16;7283446;19;155157;-58
2022/09/22 04:25:39;;;;;;;;;;;;;;;21.48;62.52;101952.84;7283180;19;153145;-59
2022/09/22 04:28:06;;;;;;;;;;;;;;;21.48;62.69;101946.38;7285929;19;154311;-59
2022/09/22 04:30:34;;;;;;;;;;;;;;;21.48;62.29;101947.22;7282729;19;153859;-59
2022/09/22 04:33:00;;;;;;;;;;;;;;;21.46;62.69;101941.03;7281105;19;153158;-59
2022/09/22 04:35:27;;;;;;;;;;;;;;;21.47;62.15;101939.91;7284209;19;151906;-59
2022/09/22 04:37:55;;;;;;;;;;;;;;;21.45;62.24;101939.34;7281411;19;153490;-59
2022/09/22 04:40:22;;;;;;;;;;;;;;;21.47;62.40;101939.06;7282466;19;154882;-59
2022/09/22 04:42:49;;;;;;;;;;;;;;;21.46;62.15;101932.59;7281192;19;152468;-59
2022/09/22 04:45:16;;;;;;;;;;;;;;;21.45;62.44;101939.34;7282299;19;152985;-59
2022/09/22 04:47:45;;;;;;;;;;;;;;;21.46;62.29;101938.22;7280649;19;152177;-59
2022/09/22 04:50:12;;;;;;;;;;;;;;;21.46;62.59;101931.75;7289350;19;152074;-59
2022/09/22 04:52:39;;;;;;;;;;;;;;;21.46;62.34;101934.56;7281792;19;153343;-59
2022/09/22 04:55:07;;;;;;;;;;;;;;;21.44;62.73;101929.22;7283021;19;151850;-59
2022/09/22 04:57:32;;;;;;;;;;;;;;;21.44;62.80;101923.59;7275781;19;153156;-58
2022/09/22 04:59:59;;;;;;;;;;;;;;;21.45;62.80;101924.44;7273912;19;153069;-58
2022/09/22 05:02:26;;;;;;;;;;;;;;;21.44;62.58;101919.97;7280837;19;152035;-58
2022/09/22 05:04:53;;;;;;;;;;;;;;;21.44;62.86;101925.59;7283184;19;152642;-58
2022/09/22 05:07:19;;;;;;;;;;;;;;;21.44;62.74;101923.59;7281901;19;153245;-58
2022/09/22 05:09:46;;;;;;;;;;;;;;;21.44;62.33;101919.97;7284052;19;152754;-58
2022/09/22 05:12:13;;;;;;;;;;;;;;;21.44;62.83;101922.78;7286049;19;154256;-58
2022/09/22 05:14:41;;;;;;;;;;;;;;;21.43;62.83;101921.94;7282912;19;152257;-59
2022/09/22 05:17:08;;;;;;;;;;;;;;;21.42;62.74;101925.03;7283043;19;152960;-59
2022/09/22 05:19:35;;;;;;;;;;;;;;;21.41;62.61;101921.38;7278116;19;154318;-59
2022/09/22 05:22:02;;;;;;;;;;;;;;;21.41;62.96;101928.97;7282389;19;153034;-59
2022/09/22 05:24:29;;;;;;;;;;;;;;;21.41;62.96;101923.34;7282353;19;153539;-60
2022/09/22 05:26:55;;;;;;;;;;;;;;;21.42;62.51;101920.25;7279556;19;153485;-59
2022/09/22 05:29:22;;;;;;;;;;;;;;;21.42;62.83;101925.88;7277440;19;152295;-60
2022/09/22 05:31:53;;;;;;;;;;;;;;;21.42;62.53;101927.84;7281168;19;152199;-60
2022/09/22 05:34:20;;;;;;;;;;;;;;;21.40;62.48;101930.09;7287757;19;152334;-59
2022/09/22 05:36:47;;;;;;;;;;;;;;;21.40;62.71;101928.13;7281937;19;153310;-59
2022/09/22 05:39:14;;;;;;;;;;;;;;;21.41;62.51;101923.34;7280232;19;154006;-59
2022/09/22 05:41:40;;;;;;;;;;;;;;;21.40;62.59;101927.28;7279179;19;151915;-60
2022/09/22 05:44:08;;;;;;;;;;;;;;;21.40;62.91;101933.75;7279825;19;152569;-59
2022/09/22 05:46:34;;;;;;;;;;;;;;;21.40;62.51;101933.75;7280183;19;152602;-59
2022/09/22 05:51:28;;;;;;;;;;;;;;;21.40;62.37;101938.53;7281627;19;152692;-59
2022/09/22 05:53:54;;;;;;;;;;;;;;;21.39;62.62;101936.88;7288057;19;153275;-59
2022/09/22 05:56:21;;;;;;;;;;;;;;;21.39;62.49;101942.50;7278163;19;153286;-58
2022/09/22 05:58:48;;;;;;;;;;;;;;;21.37;62.41;101937.16;7279562;19;153483;-58
2022/09/22 06:01:15;;;;;;;;;;;;;;;21.37;62.78;101939.97;7281040;19;152546;-58
2022/09/22 06:03:42;;;;;;;;;;;;;;;21.37;62.28;101939.97;7280382;19;152652;-58
2022/09/22 06:06:09;;;;;;;;;;;;;;;21.38;62.72;101938.84;7279273;19;153152;-58
2022/09/22 06:08:36;;;;;;;;;;;;;;;21.38;63.05;101940.81;7281696;19;152292;-58
2022/09/22 06:11:03;;;;;;;;;;;;;;;21.41;62.94;101935.44;7283398;19;152881;-58
2022/09/22 06:13:30;;;;;;;;;;;;;;;21.46;63.19;101938.22;7287365;19;153751;-58
2022/09/22 06:15:59;;;;;;;;;;;;;;;21.54;63.27;101939.56;7295423;19;152115;-59
2022/09/22 06:18:26;;;;;;;;;;;;;;;21.56;63.51;101940.97;7286023;19;154849;-58
2022/09/22 06:20:54;;;;;;;;;;;;;;;21.60;64.12;101938.41;7285623;19;151953;-58
2022/09/22 06:23:21;;;;;;;;;;;;;;;21.64;63.41;101934.72;7287428;19;152839;-58
2022/09/22 06:25:48;;;;;;;;;;;;;;;21.68;63.75;101946.22;7285512;19;154327;-58
2022/09/22 06:28:15;;;;;;;;;;;;;;;21.70;63.53;101936.38;7283045;19;152210;-58
2022/09/22 06:30:42;;;;;;;;;;;;;;;21.74;63.32;101931.84;7288123;19;153305;-58
2022/09/22 06:33:10;;;;;;;;;;;;;;;21.78;63.12;101939.69;7284186;19;153167;-58
2022/09/22 06:35:39;;;;;;;;;;;;;;;21.81;63.06;101928.69;7287795;19;152516;-58
2022/09/22 06:38:06;;;;;;;;;;;;;;;21.88;61.78;101934.00;7292464;19;152580;-57
2022/09/22 06:40:35;;;;;;;;;;;;;;;21.89;61.34;101930.06;7284002;19;152115;-57
2022/09/22 06:43:06;;;;;;;;;;;;;;;21.92;60.37;101930.31;7283402;19;152151;-57
2022/09/22 06:45:33;;;;;;;;;;;;;;;21.93;60.37;101926.41;7287211;19;153991;-57
2022/09/22 06:48:00;;;;;;;;;;;;;;;21.95;60.04;101934.50;7284078;19;152521;-57
2022/09/22 06:50:33;;;;;;;;;;;;;;;21.98;59.42;101925.50;7286338;19;152854;-57
2022/09/22 06:53:00;;;;;;;;;;;;;;;21.96;59.21;101927.75;7281515;19;154056;-57
2022/09/22 06:55:28;;;;;;;;;;;;;;;21.97;59.22;101924.66;7282451;19;151963;-57
2022/09/22 06:57:59;;;;;;;;;;;;;;;21.98;59.04;101917.06;7282775;19;152366;-57
2022/09/22 07:00:30;;;;;;;;;;;;;;;22.00;59.05;101928.84;7291745;19;152097;-57
2022/09/22 07:03:01;;;;;;;;;;;;;;;21.91;55.98;101931.44;7283120;19;152980;-57
2022/09/22 07:05:28;;;;;;;;;;;;;;;21.84;54.98;101924.47;7286499;19;153598;-57
2022/09/22 07:07:54;;;;;;;;;;;;;;;21.79;54.61;101918.88;7285401;19;152658;-57
2022/09/22 07:10:21;;;;;;;;;;;;;;;21.73;54.12;101921.72;7284953;19;153242;-58
2022/09/22 07:12:48;;;;;;;;;;;;;;;21.63;53.95;101927.41;7280800;19;154161;-57
2022/09/22 07:15:15;;;;;;;;;;;;;;;21.62;53.73;101924.91;7285029;19;152595;-57
2022/09/22 07:17:41;;;;;;;;;;;;;;;21.66;54.09;101918.41;7282667;19;152472;-58
2022/09/22 07:20:08;;;;;;;;;;;;;;;21.65;54.61;101922.34;7284677;19;153369;-57
2022/09/22 07:22:38;;;;;;;;;;;;;;;21.69;55.36;101920.63;7292460;19;153343;-57
2022/09/22 07:25:07;;;;;;;;;;;;;;;21.70;55.58;101918.66;7286213;19;153621;-58
2022/09/22 07:27:34;;;;;;;;;;;;;;;21.73;56.34;101918.06;7282889;19;152086;-57
2022/09/22 07:30:02;;;;;;;;;;;;;;;21.77;55.88;101921.13;7286162;19;153578;-57
2022/09/22 07:32:31;;;;;;;;;;;;;;;21.77;56.34;101926.75;7283142;19;153437;-57
2022/09/22 07:34:56;;;;;;;;;;;;;;;21.79;56.47;101924.50;7284262;19;152499;-57
2022/09/22 07:37:23;;;;;;;;;;;;;;;21.78;56.12;101920.00;7283255;19;152099;-57
2022/09/22 07:39:50;;;;;;;;;;;;;;;21.78;56.20;101914.38;7282795;19;152958;-57
2022/09/22 07:42:18;;;;;;;;;;;;;;;21.80;56.61;101907.34;7282726;19;152585;-57
2022/09/22 07:48:34;;;;;;;;;;;;;;;21.79;56.71;101908.47;7285488;19;152259;-57
2022/09/22 07:50:07;;;;;;;;;;;;;;;21.80;56.57;101898.06;7283618;19;153792;-57
2022/09/22 07:52:34;;;;;;;;;;;;;;;21.79;56.25;101899.19;7283847;19;153836;-57
2022/09/22 07:55:01;;;;;;;;;;;;;;;21.78;56.37;101909.59;7285539;19;152395;-57
2022/09/22 07:57:31;;;;;;;;;;;;;;;21.80;56.47;101900.88;7281606;19;154187;-56
2022/09/22 07:59:58;;;;;;;;;;;;;;;21.80;56.64;101912.13;7282662;19;153916;-57
2022/09/22 08:02:27;;;;;;;;;;;;;;;21.81;56.52;101905.34;7282442;19;152090;-57
2022/09/22 08:05:01;;;;;;;;;;;;;;;21.80;56.55;101901.72;7291242;19;153436;-57
2022/09/22 08:07:30;;;;;;;;;;;;;;;21.81;56.33;101902.53;7284433;19;151872;-57
2022/09/22 08:09:57;;;;;;;;;;;;;;;21.81;56.42;101900.56;7283814;19;153158;-57
2022/09/22 08:12:24;;;;;;;;;;;;;;;21.81;56.22;101899.72;7280018;19;155197;-57
2022/09/22 08:14:52;;;;;;;;;;;;;;;21.82;56.37;101895.78;7283234;19;152235;-57
2022/09/22 08:17:19;;;;;;;;;;;;;;;21.81;56.48;101894.09;7282240;19;153364;-57
2022/09/22 08:19:45;;;;;;;;;;;;;;;21.81;56.48;101892.13;7282859;19;152728;-57
2022/09/22 08:22:12;;;;;;;;;;;;;;;21.81;56.47;101883.69;7282694;19;152037;-57
2022/09/22 08:24:43;;;;;;;;;;;;;;;21.81;56.39;101880.03;7281928;19;153874;-57
2022/09/22 08:27:07;;;;;;;;;;;;;;;21.80;56.64;101873.59;7287484;19;155311;-57
2022/09/22 08:29:35;;;;;;;;;;;;;;;21.80;56.47;101876.41;7285386;19;153204;-57
2022/09/22 08:32:02;;;;;;;;;;;;;;;21.81;56.73;101871.56;7280484;19;154915;-57
2022/09/22 08:34:29;;;;;;;;;;;;;;;21.79;56.36;101874.72;7280744;19;152497;-57
2022/09/22 08:36:56;;;;;;;;;;;;;;;21.79;56.24;101876.69;7282948;19;154114;-57
2022/09/22 08:39:23;;;;;;;;;;;;;;;21.78;56.56;101878.66;7283284;19;152893;-57
2022/09/22 08:41:54;;;;;;;;;;;;;;;21.77;56.50;101878.94;7279972;19;153126;-57
2022/09/22 08:44:24;;;;;;;;;;;;;;;21.77;56.54;101876.97;7281002;19;151936;-57
2022/09/22 08:46:53;;;;;;;;;;;;;;;21.78;56.33;101883.44;7281484;19;153443;-57
2022/09/22 08:51:56;;;;;;;;;;;;;;;21.77;56.74;101876.97;7282455;19;152352;-57
2022/09/22 08:54:26;;;;;;;;;;;;;;;21.75;56.60;101873.63;7280581;19;152148;-57
2022/09/22 08:56:56;;;;;;;;;;;;;;;21.76;56.20;101877.28;7276061;19;151583;-57
2022/09/22 08:59:28;;;;;;;;;;;;;;;21.74;56.61;101872.78;7281983;19;152082;-57
2022/09/22 09:01:55;;;;;;;;;;;;;;;21.74;56.49;101878.41;7283093;19;154342;-56
2022/09/22 09:04:25;;;;;;;;;;;;;;;21.75;56.28;101876.44;7282380;19;153607;-57
2022/09/22 09:06:55;;;;;;;;;;;;;;;21.74;56.31;101872.78;7279639;19;152234;-57
2022/09/22 09:09:22;;;;;;;;;;;;;;;21.74;56.27;101872.78;7230727;19;158797;-57
2022/09/22 09:11:52;;;;;;;;;;;;;;;21.74;56.35;101872.78;7274927;19;153854;-57
2022/09/22 09:14:20;;;;;;;;;;;;;;;21.74;56.39;101869.13;7279357;19;152192;-57
2022/09/22 09:16:51;;;;;;;;;;;;;;;21.73;56.29;101871.09;7277295;19;152312;-57
2022/09/22 09:19:23;;;;;;;;;;;;;;;21.77;55.91;101868.53;7277760;19;153631;-57
2022/09/22 09:21:53;;;;;;;;;;;;;;;21.76;56.18;101868.84;7254654;19;155975;-56
2022/09/22 09:24:19;;;;;;;;;;;;;;;21.74;56.15;101867.16;7277618;19;153801;-57
2022/09/22 09:27:11;;;;;;;;;;;;;;;21.75;56.03;101876.44;7252141;19;155828;-57
2022/09/22 09:29:43;;;;;;;;;;;;;;;21.76;55.99;101871.66;7273873;19;152703;-56
2022/09/22 09:32:13;;;;;;;;;;;;;;;21.74;56.06;101871.94;7275837;19;152982;-57
2022/09/22 09:34:41;;;;;;;;;;;;;;;21.74;55.89;101874.75;7283021;19;154447;-57
2022/09/22 09:37:12;;;;;;;;;;;;;;;21.73;56.09;101875.88;7276143;19;152491;-57
2022/09/22 09:39:41;;;;;;;;;;;;;;;21.74;55.99;101869.13;7275977;19;154388;-57
2022/09/22 09:42:12;;;;;;;;;;;;;;;21.73;56.00;101862.66;7274170;19;152142;-56
2022/09/22 09:44:39;;;;;;;;;;;;;;;21.72;55.75;101855.34;7271489;19;152310;-57
2022/09/22 09:47:10;;;;;;;;;;;;;;;21.73;55.84;101854.22;7274051;19;152360;-57
2022/09/22 09:49:37;;;;;;;;;;;;;;;21.72;55.60;101852.53;7278657;19;152115;-56
2022/09/22 09:52:05;;;;;;;;;;;;;;;21.72;56.01;101858.16;7276858;19;153241;-57
2022/09/22 09:54:33;;;;;;;;;;;;;;;21.73;55.82;101848.59;7274515;19;153785;-57
2022/09/22 09:57:03;;;;;;;;;;;;;;;21.72;55.57;101846.91;7282015;19;152173;-56
2022/09/22 10:02:00;;;;;;;;;;;;;;;21.71;55.65;101839.59;7273633;19;152249;-57
2022/09/22 10:04:31;;;;;;;;;;;;;;;21.72;55.69;101834.81;7274888;19;153708;-57
2022/09/22 10:07:00;;;;;;;;;;;;;;;21.72;55.73;101837.63;7270714;19;152717;-57
2022/09/22 10:09:28;;;;;;;;;;;;;;;21.73;55.71;101836.50;7275728;19;152303;-57
2022/09/22 10:11:55;;;;;;;;;;;;;;;21.73;55.63;101828.06;7268100;19;153791;-56
2022/09/22 10:14:26;;;;;;;;;;;;;;;21.73;55.48;101828.91;7271402;19;152765;-57
2022/09/22 10:16:53;;;;;;;;;;;;;;;21.73;55.44;101830.88;7283774;19;152405;-57
2022/09/22 10:19:21;;;;;;;;;;;;;;;21.74;55.39;101835.38;7278467;19;153942;-57
2022/09/22 10:21:49;;;;;;;;;;;;;;;21.73;55.66;101826.09;7275725;19;153291;-57
2022/09/22 10:24:19;;;;;;;;;;;;;;;21.74;55.60;101816.50;7275793;19;155001;-57
2022/09/22 10:26:53;;;;;;;;;;;;;;;21.74;55.40;101808.06;7272565;19;152302;-57
2022/09/22 10:29:21;;;;;;;;;;;;;;;21.74;55.25;101816.50;7274344;19;152029;-56
2022/09/22 10:31:53;;;;;;;;;;;;;;;21.74;55.21;101810.88;7276027;19;152072;-57
2022/09/22 10:34:23;;;;;;;;;;;;;;;21.74;55.02;101808.06;7278200;19;153918;-57
2022/09/22 10:36:50;;;;;;;;;;;;;;;21.73;55.12;101812.03;7277373;19;152477;-56
2022/09/22 10:39:17;;;;;;;;;;;;;;;21.72;54.86;101801.06;7285956;19;152609;-57
2022/09/22 10:41:46;;;;;;;;;;;;;;;21.71;55.16;101802.22;7272366;19;152254;-57
2022/09/22 10:44:13;;;;;;;;;;;;;;;21.71;54.69;101810.66;7276200;19;153285;-57
2022/09/22 10:47:05;;;;;;;;;;;;;;;21.71;54.79;101805.03;7276031;19;153560;-57
2022/09/22 10:49:35;;;;;;;;;;;;;;;21.70;55.09;101806.16;7278311;19;151986;-57
2022/09/22 10:52:02;;;;;;;;;;;;;;;21.69;54.52;101802.50;7277971;19;154792;-57
2022/09/22 10:54:33;;;;;;;;;;;;;;;21.70;54.65;101803.34;7277710;19;154539;-57
2022/09/22 10:57:08;;;;;;;;;;;;;;;21.69;54.64;101801.66;7274944;19;152679;-57
2022/09/22 10:59:38;;;;;;;;;;;;;;;21.67;55.04;101796.31;7283777;19;152997;-57
2022/09/22 11:02:20;;;;;;;;;;;;;;;21.66;54.98;101797.47;7287947;19;153198;-57
2022/09/22 11:04:48;;;;;;;;;;;;;;;21.70;54.98;101800.53;7284153;19;152190;-57
2022/09/22 11:12:26;;;;;;;;;;;;;;;21.73;54.71;101791.47;7278075;19;152471;-57
2022/09/22 11:14:58;;;;;;;;;;;;;;;21.72;54.80;101790.66;7280163;19;153310;-57
2022/09/22 11:17:25;;;;;;;;;;;;;;;21.74;54.72;101781.91;7282826;19;152411;-56
2022/09/22 11:19:56;;;;;;;;;;;;;;;21.73;55.02;101775.44;7280414;19;153713;-57
2022/09/22 11:22:26;;;;;;;;;;;;;;;21.72;54.60;101778.56;7275384;19;154289;-57
2022/09/22 11:24:53;;;;;;;;;;;;;;;21.74;54.72;101770.66;7287327;19;151921;-57
2022/09/22 11:27:28;;;;;;;;;;;;;;;21.74;54.73;101771.50;7273530;19;154063;-57
2022/09/22 11:29:55;;;;;;;;;;;;;;;21.73;54.43;101758.56;7277676;19;152582;-57
2022/09/22 11:32:25;;;;;;;;;;;;;;;21.73;54.72;101757.72;7274358;19;152956;-57
2022/09/22 11:34:56;;;;;;;;;;;;;;;21.74;54.67;101757.44;7277187;19;154137;-56
2022/09/22 11:37:24;;;;;;;;;;;;;;;21.78;55.05;101763.31;7277884;19;152625;-57
2022/09/22 11:39:54;;;;;;;;;;;;;;;21.79;54.65;101755.72;7278528;19;152687;-57
2022/09/22 11:42:29;;;;;;;;;;;;;;;21.82;54.61;101760.72;7271364;19;154113;-57
2022/09/22 11:44:57;;;;;;;;;;;;;;;21.83;54.53;101752.00;7277787;19;153308;-57
2022/09/22 11:47:31;;;;;;;;;;;;;;;21.85;54.22;101746.09;7282552;19;152744;-57
2022/09/22 11:50:03;;;;;;;;;;;;;;;21.85;54.40;101741.28;7279978;19;152135;-57
2022/09/22 11:52:33;;;;;;;;;;;;;;;21.87;54.61;101743.81;7277693;19;152369;-57
2022/09/22 11:55:04;;;;;;;;;;;;;;;21.85;54.36;101735.66;7277070;19;154592;-57
2022/09/22 11:57:33;;;;;;;;;;;;;;;21.84;54.46;101731.19;7273586;19;152464;-57
2022/09/22 12:00:01;;;;;;;;;;;;;;;21.86;54.39;101722.41;7273414;19;152621;-57
2022/09/22 12:02:29;;;;;;;;;;;;;;;21.85;54.19;101723.59;7271600;19;153420;-57
2022/09/22 12:04:59;;;;;;;;;;;;;;;21.83;54.03;101723.88;7278545;19;151880;-57
2022/09/22 12:07:30;;;;;;;;;;;;;;;21.84;54.25;101714.31;7276077;19;152765;-57
2022/09/22 12:10:00;;;;;;;;;;;;;;;21.86;54.19;101714.81;7283091;19;152122;-57
2022/09/22 12:12:30;;;;;;;;;;;;;;;21.86;54.24;101713.97;7275215;19;153344;-57
2022/09/22 12:15:00;;;;;;;;;;;;;;;21.87;54.21;101712.84;7275460;19;153468;-57
2022/09/22 12:17:35;;;;;;;;;;;;;;;21.85;54.19;101706.72;7280700;19;153145;-57
2022/09/22 12:20:09;;;;;;;;;;;;;;;21.84;54.32;101702.22;7282219;19;153165;-57
2022/09/22 12:22:39;;;;;;;;;;;;;;;21.85;53.79;101701.88;7278542;19;153269;-57
2022/09/22 12:25:12;;;;;;;;;;;;;;;21.85;54.23;101698.25;7282281;19;152231;-57
2022/09/22 12:27:57;;;;;;;;;;;;;;;21.84;53.77;101705.03;7278482;19;152586;-57
2022/09/22 12:30:24;;;;;;;;;;;;;;;21.83;53.75;101694.91;7285743;19;154509;-57
2022/09/22 12:32:51;;;;;;;;;;;;;;;21.82;53.75;101704.47;7276020;19;152415;-57
2022/09/22 12:35:24;;;;;;;;;;;;;;;21.82;53.90;101693.22;7277722;19;152705;-56
2022/09/22 12:37:59;;;;;;;;;;;;;;;21.82;53.84;101693.22;7260101;19;154527;-57
2022/09/22 12:42:56;;;;;;;;;;;;;;;21.80;53.96;101687.06;7253390;19;154591;-58
2022/09/22 12:45:32;;;;;;;;;;;;;;;21.82;53.91;101690.41;7283313;19;152530;-57
2022/09/22 12:48:01;;;;;;;;;;;;;;;21.81;53.88;101688.72;7279705;19;153660;-57
2022/09/22 12:50:35;;;;;;;;;;;;;;;21.80;53.82;101668.22;7279963;19;154063;-57
2022/09/22 12:53:04;;;;;;;;;;;;;;;21.79;54.05;101674.13;7287954;19;152549;-57
2022/09/22 12:58:18;;;;;;;;;;;;;;;21.79;53.74;101671.31;7276202;19;152145;-57
2022/09/22 13:00:48;;;;;;;;;;;;;;;21.79;53.82;101674.13;7277574;19;153176;-57
2022/09/22 13:03:25;;;;;;;;;;;;;;;21.80;53.53;101675.81;7276238;19;154435;-57